Time;durP1;ratioP1;P1;durP2;ratioP2;P2;SDS_P1;SDS_P2;PMS_P1;PMS_P2;Temp;Humidity;BMP_temperature;BMP_pressure;BME280_temperature;BME280_humidity;BME280_pressure;Samples;Min_cycle;Max_cycle;Signal;HPM_P1;HPM_P2
2022/04/02 00:02:04;;;;;;;1.25;0.90;;;3.50;99.90;;;;;;4975452;28;20033;-80
2022/04/02 00:04:30;;;;;;;3.60;0.70;;;3.60;99.90;;;;;;4956847;28;20042;-80
2022/04/02 00:06:56;;;;;;;3.78;1.00;;;3.50;99.90;;;;;;4974855;28;20494;-79
2022/04/02 00:09:22;;;;;;;3.03;1.60;;;3.50;99.90;;;;;;4974987;28;20043;-80
2022/04/02 00:11:48;;;;;;;2.65;1.00;;;3.50;99.90;;;;;;4975195;28;20034;-80
2022/04/02 00:14:14;;;;;;;5.32;1.30;;;3.50;99.90;;;;;;4974771;28;20027;-80
2022/04/02 00:16:40;;;;;;;2.08;1.05;;;3.50;99.90;;;;;;4974195;28;20026;-80
2022/04/02 00:19:07;;;;;;;4.68;1.20;;;3.30;99.90;;;;;;4957079;28;20023;-80
2022/04/02 00:21:33;;;;;;;3.20;1.20;;;3.20;99.90;;;;;;4974681;28;20039;-80
2022/04/02 00:23:59;;;;;;;2.40;1.38;;;3.20;99.90;;;;;;4974760;28;20459;-79
2022/04/02 00:26:25;;;;;;;2.15;1.33;;;3.20;99.90;;;;;;4974476;28;20026;-79
2022/04/02 00:28:51;;;;;;;4.43;1.40;;;3.20;99.90;;;;;;4974731;28;20045;-79
2022/04/02 00:31:18;;;;;;;3.47;1.42;;;3.20;99.90;;;;;;4974310;28;20111;-80
2022/04/02 00:33:46;;;;;;;4.38;1.60;;;3.20;99.90;;;;;;4973845;28;20521;-80
2022/04/02 00:36:13;;;;;;;6.35;1.60;;;3.20;99.90;;;;;;4973929;28;20034;-80
2022/04/02 00:38:39;;;;;;;2.97;1.60;;;3.20;99.90;;;;;;4974129;28;20395;-80
2022/04/02 00:41:06;;;;;;;2.72;1.52;;;3.20;99.90;;;;;;4974497;28;20026;-79
2022/04/02 00:43:39;;;;;;;2.88;1.60;;;3.20;99.90;;;;;;4974289;28;20093;-80
2022/04/02 00:46:11;;;;;;;2.17;1.40;;;3.10;99.90;;;;;;4973516;28;20069;-80
2022/04/02 00:48:37;;;;;;;2.28;1.50;;;3.10;99.90;;;;;;4974323;28;20061;-80
2022/04/02 00:51:05;;;;;;;3.17;1.73;;;3.10;99.90;;;;;;4974369;28;20033;-80
2022/04/02 00:53:36;;;;;;;4.38;1.70;;;3.20;99.90;;;;;;4973487;28;20023;-80
2022/04/02 00:56:03;;;;;;;2.88;1.60;;;3.10;99.90;;;;;;4972683;28;20073;-80
2022/04/02 00:58:29;;;;;;;3.80;1.70;;;3.10;99.90;;;;;;4973902;28;20488;-80
2022/04/02 01:00:55;;;;;;;2.22;1.45;;;3.10;99.90;;;;;;4956782;28;20023;-80
2022/04/02 01:03:21;;;;;;;3.33;1.60;;;3.00;99.90;;;;;;4973708;28;20034;-80
2022/04/02 01:05:48;;;;;;;3.65;2.17;;;3.00;99.90;;;;;;4973813;28;20503;-80
2022/04/02 01:08:14;;;;;;;2.92;1.70;;;3.00;99.90;;;;;;4974013;28;20037;-80
2022/04/02 01:10:40;;;;;;;4.10;1.67;;;3.00;99.90;;;;;;4973318;28;20110;-79
2022/04/02 01:13:07;;;;;;;3.20;1.90;;;3.00;99.90;;;;;;4973924;28;20058;-79
2022/04/02 01:15:33;;;;;;;2.92;1.70;;;3.00;99.90;;;;;;4973217;28;20031;-80
2022/04/02 01:17:58;;;;;;;4.00;1.75;;;3.10;99.90;;;;;;4973746;28;20025;-79
2022/04/02 01:20:29;;;;;;;3.00;1.45;;;3.10;99.90;;;;;;4973164;28;20491;-80
2022/04/02 01:22:55;;;;;;;8.18;2.03;;;3.10;99.90;;;;;;4973756;28;20038;-80
2022/04/02 01:25:21;;;;;;;3.38;1.50;;;3.20;99.90;;;;;;4973044;28;20490;-79
2022/04/02 01:27:47;;;;;;;4.15;1.20;;;3.20;99.90;;;;;;4973365;28;20031;-80
2022/04/02 01:30:14;;;;;;;2.95;1.48;;;3.20;99.90;;;;;;4973269;28;20038;-80
2022/04/02 01:32:43;;;;;;;4.32;2.00;;;3.20;99.90;;;;;;4973187;28;20494;-79
2022/04/02 01:35:10;;;;;;;4.10;1.75;;;3.20;99.90;;;;;;4973293;28;20026;-80
2022/04/02 01:37:37;;;;;;;6.47;1.58;;;3.10;99.90;;;;;;4973179;28;20038;-80
2022/04/02 01:40:04;;;;;;;3.42;1.42;;;3.20;99.90;;;;;;4973256;28;20038;-80
2022/04/02 01:42:30;;;;;;;6.20;1.50;;;3.20;99.90;;;;;;4973199;28;20019;-80
2022/04/02 01:44:56;;;;;;;4.18;1.50;;;3.20;99.90;;;;;;4973170;28;20395;-79
2022/04/02 01:47:22;;;;;;;5.10;1.80;;;3.10;99.90;;;;;;4973104;28;20059;-80
2022/04/02 01:49:49;;;;;;;6.70;1.45;;;3.10;99.90;;;;;;4973368;28;20086;-80
2022/04/02 01:52:20;;;;;;;3.70;1.73;;;3.20;99.90;;;;;;4973111;28;20074;-80
2022/04/02 01:54:47;;;;;;;4.45;1.38;;;3.10;99.90;;;;;;4972489;28;20104;-80
2022/04/02 01:57:13;;;;;;;3.97;1.90;;;3.10;99.90;;;;;;4955951;28;20522;-80
2022/04/02 01:59:40;;;;;;;6.60;2.08;;;3.10;99.90;;;;;;4973109;28;20471;-80
2022/04/02 02:02:07;;;;;;;4.80;1.63;;;3.10;99.90;;;;;;4973138;28;20033;-80
2022/04/02 02:04:33;;;;;;;2.92;1.45;;;3.10;99.90;;;;;;4955527;28;20031;-80
2022/04/02 02:07:08;;;;;;;6.45;2.28;;;3.20;99.90;;;;;;4958178;28;20035;-80
2022/04/02 02:09:34;;;;;;;3.17;1.80;;;3.10;99.90;;;;;;4978752;28;20034;-79
2022/04/02 02:12:01;;;;;;;4.65;1.60;;;3.10;99.90;;;;;;4979506;28;20398;-80
2022/04/02 02:14:28;;;;;;;3.50;1.90;;;3.20;99.90;;;;;;4978804;28;20022;-79
2022/04/02 02:16:53;;;;;;;6.93;2.13;;;3.20;99.90;;;;;;4979421;28;20023;-80
2022/04/02 02:19:19;;;;;;;4.38;1.75;;;3.20;99.90;;;;;;4979412;28;20027;-80
2022/04/02 02:21:45;;;;;;;7.63;2.05;;;3.20;99.90;;;;;;4978956;28;20051;-79
2022/04/02 02:24:10;;;;;;;6.45;1.98;;;3.20;99.90;;;;;;4962034;28;20534;-79
2022/04/02 02:26:36;;;;;;;2.85;1.55;;;3.20;99.90;;;;;;4979247;28;20031;-79
2022/04/02 02:29:06;;;;;;;3.35;1.48;;;3.20;99.90;;;;;;4961528;28;20031;-79
2022/04/02 02:31:33;;;;;;;3.55;1.55;;;3.20;99.90;;;;;;4979437;28;20042;-79
2022/04/02 02:36:43;;;;;;;4.82;1.70;;;3.20;99.90;;;;;;4978800;28;20077;-79
2022/04/02 02:39:09;;;;;;;5.07;1.98;;;3.20;99.90;;;;;;4979189;28;20015;-79
2022/04/02 02:41:34;;;;;;;6.07;2.20;;;3.20;99.90;;;;;;4979501;28;20406;-79
2022/04/02 02:44:01;;;;;;;5.68;2.00;;;3.20;99.90;;;;;;4978663;28;20050;-80
2022/04/02 02:46:27;;;;;;;6.13;1.52;;;3.20;99.90;;;;;;4978996;28;20026;-79
2022/04/02 02:48:52;;;;;;;4.82;2.15;;;3.20;99.90;;;;;;4978695;28;20053;-79
2022/04/02 02:51:18;;;;;;;3.50;1.80;;;3.20;99.90;;;;;;4978711;28;20030;-79
2022/04/02 02:53:44;;;;;;;3.80;1.95;;;3.10;99.90;;;;;;4979446;28;20065;-79
2022/04/02 02:56:10;;;;;;;4.22;1.67;;;3.10;99.90;;;;;;4978686;28;20034;-79
2022/04/02 02:58:36;;;;;;;4.75;1.80;;;3.10;99.90;;;;;;4978324;28;20023;-80
2022/04/02 03:01:03;;;;;;;3.85;1.95;;;3.00;99.90;;;;;;4979493;28;20018;-79
2022/04/02 03:03:28;;;;;;;8.10;1.90;;;3.00;99.90;;;;;;4961825;28;20399;-79
2022/04/02 03:05:54;;;;;;;4.88;1.95;;;3.00;99.90;;;;;;4961207;28;20034;-80
2022/04/02 03:08:20;;;;;;;5.03;2.00;;;2.90;99.90;;;;;;4978618;28;20057;-80
2022/04/02 03:10:45;;;;;;;3.72;1.63;;;2.90;99.90;;;;;;4978758;28;20041;-79
2022/04/02 03:13:11;;;;;;;6.45;2.65;;;2.90;99.90;;;;;;4978833;28;20062;-80
2022/04/02 03:15:38;;;;;;;5.35;1.85;;;3.00;99.90;;;;;;4978621;28;20027;-80
2022/04/02 03:18:06;;;;;;;7.88;2.40;;;2.90;99.90;;;;;;4977341;28;20022;-80
2022/04/02 03:20:32;;;;;;;5.72;1.65;;;3.00;99.90;;;;;;4975200;28;20047;-79
2022/04/02 03:22:57;;;;;;;3.88;1.70;;;3.00;99.90;;;;;;4976159;28;20037;-79
2022/04/02 03:25:24;;;;;;;4.05;2.20;;;2.90;99.90;;;;;;4958035;28;20402;-79
2022/04/02 03:27:49;;;;;;;7.78;1.90;;;2.90;99.90;;;;;;4975359;28;20368;-80
2022/04/02 03:30:18;;;;;;;4.53;1.73;;;3.00;99.90;;;;;;4975658;28;20105;-79
2022/04/02 03:32:44;;;;;;;9.07;1.98;;;3.00;99.90;;;;;;4975331;28;20027;-79
2022/04/02 03:35:11;;;;;;;5.63;2.00;;;3.00;99.90;;;;;;4975623;28;20106;-80
2022/04/02 03:37:37;;;;;;;4.43;2.25;;;2.90;99.90;;;;;;4975475;28;20019;-80
2022/04/02 03:40:08;;;;;;;4.35;1.95;;;2.90;99.90;;;;;;4975087;28;20391;-79
2022/04/02 03:42:37;;;;;;;4.85;1.95;;;2.90;99.90;;;;;;4975398;28;20054;-80
2022/04/02 03:45:07;;;;;;;6.05;1.90;;;2.90;99.90;;;;;;4957435;28;20042;-80
2022/04/02 03:47:33;;;;;;;7.97;2.00;;;2.90;99.90;;;;;;4957605;28;20027;-80
2022/04/02 03:49:59;;;;;;;5.28;2.45;;;2.90;99.90;;;;;;4975602;28;20046;-79
2022/04/02 03:52:25;;;;;;;6.35;2.25;;;2.90;99.90;;;;;;4957938;28;20486;-80
2022/04/02 03:54:51;;;;;;;8.77;2.10;;;2.90;99.90;;;;;;4974386;28;20027;-80
2022/04/02 03:57:17;;;;;;;6.45;1.85;;;2.90;99.90;;;;;;4957869;28;20023;-79
2022/04/02 03:59:44;;;;;;;6.15;2.35;;;2.80;99.90;;;;;;4974317;28;20046;-79
2022/04/02 04:02:13;;;;;;;7.75;2.30;;;2.80;99.90;;;;;;4975568;28;20023;-80
2022/04/02 04:04:40;;;;;;;6.47;2.30;;;2.80;99.90;;;;;;4974891;28;20035;-80
2022/04/02 04:07:06;;;;;;;4.65;2.17;;;2.90;99.90;;;;;;4957812;28;20053;-80
2022/04/02 04:09:32;;;;;;;5.32;2.55;;;2.90;99.90;;;;;;4959294;28;20030;-80
2022/04/02 04:11:59;;;;;;;5.28;2.40;;;2.80;99.90;;;;;;4975236;28;20111;-80
2022/04/02 04:14:25;;;;;;;7.22;2.70;;;2.80;99.90;;;;;;4960417;28;20038;-79
2022/04/02 04:16:52;;;;;;;5.55;2.22;;;2.80;99.90;;;;;;4957497;28;20376;-80
2022/04/02 04:19:18;;;;;;;5.28;2.28;;;2.80;99.90;;;;;;4974718;28;20034;-79
2022/04/02 04:21:44;;;;;;;8.35;2.50;;;2.70;99.90;;;;;;4974841;28;20047;-80
2022/04/02 04:24:10;;;;;;;7.57;2.53;;;2.80;99.90;;;;;;4974303;28;20042;-80
2022/04/02 04:26:36;;;;;;;8.13;2.00;;;2.80;99.90;;;;;;4974737;28;20027;-80
2022/04/02 04:29:02;;;;;;;9.88;2.78;;;2.70;99.90;;;;;;4974144;28;20039;-80
2022/04/02 04:31:28;;;;;;;7.70;2.40;;;2.80;99.90;;;;;;4974674;28;20029;-80
2022/04/02 04:33:54;;;;;;;8.40;1.98;;;2.70;99.90;;;;;;4957027;28;20117;-80
2022/04/02 04:36:20;;;;;;;5.25;2.13;;;2.80;99.90;;;;;;4974082;28;20026;-79
2022/04/02 04:38:46;;;;;;;10.20;2.15;;;2.70;99.90;;;;;;4974025;28;20027;-80
2022/04/02 04:41:13;;;;;;;4.88;2.13;;;2.70;99.90;;;;;;4974112;28;20054;-79
2022/04/02 04:43:41;;;;;;;4.93;2.40;;;2.80;99.90;;;;;;4974410;28;20062;-80
2022/04/02 04:46:08;;;;;;;7.13;2.17;;;2.70;99.90;;;;;;4974605;28;20027;-80
2022/04/02 04:48:35;;;;;;;3.63;1.90;;;2.70;99.90;;;;;;4974195;28;20023;-80
2022/04/02 04:51:05;;;;;;;7.68;2.35;;;2.70;99.90;;;;;;4974060;28;20023;-80
2022/04/02 04:53:32;;;;;;;4.65;2.05;;;2.70;99.90;;;;;;4973929;28;20030;-80
2022/04/02 04:55:58;;;;;;;5.65;2.22;;;2.70;99.90;;;;;;4956809;28;20026;-80
2022/04/02 04:58:24;;;;;;;5.68;1.88;;;2.80;99.90;;;;;;4956976;28;20023;-80
2022/04/02 05:00:52;;;;;;;5.72;2.40;;;2.70;99.90;;;;;;4973791;28;20015;-80
2022/04/02 05:03:17;;;;;;;6.90;2.42;;;2.60;99.90;;;;;;4973826;28;20033;-80
2022/04/02 05:05:43;;;;;;;6.93;2.90;;;2.60;99.90;;;;;;4973765;28;20023;-80
2022/04/02 05:08:09;;;;;;;6.82;3.00;;;2.60;99.90;;;;;;4973700;28;20050;-80
2022/04/02 05:10:38;;;;;;;7.78;2.45;;;2.50;99.90;;;;;;4973725;28;20375;-80
2022/04/02 05:13:04;;;;;;;10.27;2.50;;;2.50;99.90;;;;;;4972544;28;20483;-79
2022/04/02 05:15:30;;;;;;;6.85;2.75;;;2.40;99.90;;;;;;4973930;28;20038;-80
2022/04/02 05:17:56;;;;;;;12.40;3.15;;;2.40;99.90;;;;;;4973653;28;20022;-79
2022/04/02 05:20:22;;;;;;;5.88;3.10;;;2.40;99.90;;;;;;4966102;28;20030;-80
2022/04/02 05:22:48;;;;;;;7.85;2.75;;;2.40;99.90;;;;;;4956119;28;20414;-80
2022/04/02 05:25:16;;;;;;;8.73;3.17;;;2.30;99.90;;;;;;4973435;28;20031;-80
2022/04/02 05:27:43;;;;;;;7.97;2.85;;;2.40;99.90;;;;;;4973611;28;20494;-80
2022/04/02 05:30:11;;;;;;;9.25;3.38;;;2.30;99.90;;;;;;4973881;28;20372;-80
2022/04/02 05:32:37;;;;;;;8.25;3.13;;;2.30;99.90;;;;;;4973547;28;20027;-80
2022/04/02 05:35:03;;;;;;;6.88;3.25;;;2.20;99.90;;;;;;4972807;28;20025;-80
2022/04/02 05:37:29;;;;;;;6.53;2.58;;;2.10;99.90;;;;;;4972839;28;20059;-80
2022/04/02 05:39:55;;;;;;;10.13;3.10;;;2.10;99.90;;;;;;4973221;28;20491;-80
2022/04/02 05:42:21;;;;;;;9.95;3.40;;;2.10;99.90;;;;;;4955619;28;20031;-80
2022/04/02 05:44:47;;;;;;;6.55;2.90;;;2.10;99.90;;;;;;4972789;28;20042;-79
2022/04/02 05:47:12;;;;;;;6.03;2.80;;;2.10;99.90;;;;;;4973620;28;20027;-80
2022/04/02 05:49:38;;;;;;;5.57;2.55;;;2.00;99.90;;;;;;4972815;28;20031;-79
2022/04/02 05:52:04;;;;;;;7.80;2.42;;;2.00;99.90;;;;;;4972791;28;20035;-80
2022/04/02 05:54:30;;;;;;;8.38;3.08;;;1.90;99.90;;;;;;4973081;28;20061;-80
2022/04/02 05:56:57;;;;;;;6.57;2.67;;;2.00;99.90;;;;;;4973068;28;20051;-80
2022/04/02 05:59:23;;;;;;;11.07;3.40;;;2.00;99.90;;;;;;4972901;28;20023;-79
2022/04/02 06:01:48;;;;;;;6.05;2.45;;;2.00;99.90;;;;;;4973144;28;20062;-80
2022/04/02 06:04:14;;;;;;;5.50;2.50;;;2.00;99.90;;;;;;4973561;28;20050;-79
2022/04/02 06:06:40;;;;;;;8.05;3.13;;;1.90;99.90;;;;;;4973023;28;20030;-80
2022/04/02 06:09:06;;;;;;;7.85;2.70;;;2.00;99.90;;;;;;4955645;28;20030;-80
2022/04/02 06:11:32;;;;;;;5.25;2.50;;;2.10;99.90;;;;;;4973016;28;20034;-80
2022/04/02 06:13:58;;;;;;;7.43;2.92;;;2.00;99.90;;;;;;4972777;28;20395;-80
2022/04/02 06:16:25;;;;;;;8.82;3.10;;;2.00;99.90;;;;;;4955614;28;20471;-79
2022/04/02 06:18:51;;;;;;;8.57;2.55;;;1.90;99.90;;;;;;4973010;28;20019;-79
2022/04/02 06:21:18;;;;;;;7.78;2.80;;;1.90;99.90;;;;;;4972522;28;20046;-80
2022/04/02 06:23:44;;;;;;;9.63;2.88;;;1.90;99.90;;;;;;4972950;28;20026;-80
2022/04/02 06:26:10;;;;;;;6.72;3.15;;;1.90;99.90;;;;;;4972445;28;20487;-80
2022/04/02 06:28:37;;;;;;;11.30;3.33;;;1.90;99.90;;;;;;4972063;28;20030;-80
2022/04/02 06:31:03;;;;;;;6.80;2.80;;;1.90;99.90;;;;;;4973153;28;20037;-80
2022/04/02 06:33:30;;;;;;;10.55;3.28;;;1.80;99.90;;;;;;4955263;28;20027;-79
2022/04/02 06:35:55;;;;;;;7.65;2.80;;;1.90;99.90;;;;;;4972223;28;20035;-80
2022/04/02 06:38:21;;;;;;;7.20;3.05;;;1.80;99.90;;;;;;4955424;28;20038;-80
2022/04/02 06:40:47;;;;;;;7.05;3.53;;;1.80;99.90;;;;;;4972917;28;20027;-79
2022/04/02 06:43:13;;;;;;;7.45;3.35;;;1.80;99.90;;;;;;4954874;28;20598;-79
2022/04/02 06:45:39;;;;;;;11.48;3.00;;;1.80;99.90;;;;;;4972785;28;20506;-80
2022/04/02 06:48:05;;;;;;;6.90;3.15;;;1.70;99.90;;;;;;4972693;28;20066;-80
2022/04/02 06:50:30;;;;;;;9.73;4.97;;;1.70;99.90;;;;;;4972588;28;20511;-79
2022/04/02 06:52:56;;;;;;;10.07;3.75;;;1.60;99.90;;;;;;4955205;28;20414;-80
2022/04/02 06:55:22;;;;;;;6.22;3.03;;;1.70;99.90;;;;;;4975252;28;20030;-79
2022/04/02 06:57:56;;;;;;;7.03;2.90;;;1.70;99.90;;;;;;4975244;28;20082;-79
2022/04/02 07:00:22;;;;;;;6.32;3.58;;;1.70;99.90;;;;;;4976375;28;20019;-80
2022/04/02 07:02:48;;;;;;;6.20;3.20;;;1.70;99.90;;;;;;4976585;28;20058;-80
2022/04/02 07:05:14;;;;;;;9.13;3.60;;;1.70;99.90;;;;;;4975717;28;20059;-80
2022/04/02 07:07:40;;;;;;;10.05;4.70;;;1.70;99.90;;;;;;4976258;28;20106;-79
2022/04/02 07:10:07;;;;;;;9.55;3.70;;;1.70;99.90;;;;;;4975926;28;20124;-79
2022/04/02 07:12:34;;;;;;;12.20;3.92;;;1.80;99.90;;;;;;4958266;28;20058;-79
2022/04/02 07:15:00;;;;;;;9.68;3.90;;;1.70;99.90;;;;;;4975598;28;20030;-79
2022/04/02 07:17:27;;;;;;;11.02;3.38;;;1.70;99.90;;;;;;4975900;28;20034;-80
2022/04/02 07:19:55;;;;;;;8.30;4.20;;;1.70;99.90;;;;;;4975509;28;20027;-80
2022/04/02 07:22:23;;;;;;;9.88;3.70;;;1.80;99.90;;;;;;4975544;28;20023;-79
2022/04/02 07:24:51;;;;;;;8.93;3.67;;;1.80;99.90;;;;;;4976326;28;20034;-80
2022/04/02 07:27:21;;;;;;;11.05;3.88;;;1.80;99.90;;;;;;4958300;28;20113;-79
2022/04/02 07:29:51;;;;;;;9.15;3.42;;;1.80;99.90;;;;;;4958344;28;20086;-79
2022/04/02 07:32:17;;;;;;;15.95;3.90;;;1.80;99.90;;;;;;4975602;28;20482;-79
2022/04/02 07:34:43;;;;;;;12.82;3.92;;;1.80;99.90;;;;;;4958282;28;20122;-80
2022/04/02 07:37:28;;;;;;;11.13;4.10;;;1.90;99.90;;;;;;4975374;28;20031;-79
2022/04/02 07:40:27;;;;;;;11.20;4.32;;;1.90;99.90;;;;;;4958311;28;20038;-80
2022/04/02 07:43:20;;;;;;;9.32;4.13;;;1.90;99.90;;;;;;4958899;28;20128;-80
2022/04/02 07:45:55;;;;;;;8.77;3.92;;;1.90;99.90;;;;;;4975785;28;20027;-79
2022/04/02 07:48:24;;;;;;;11.43;3.45;;;1.90;99.90;;;;;;4958461;28;20031;-79
2022/04/02 07:50:51;;;;;;;10.05;4.18;;;2.00;99.90;;;;;;4976151;28;20022;-79
2022/04/02 07:53:24;;;;;;;11.18;4.53;;;2.00;99.90;;;;;;4971272;28;20034;-80
2022/04/02 07:56:02;;;;;;;9.93;4.20;;;2.00;99.90;;;;;;4974082;28;20454;-80
2022/04/02 07:58:31;;;;;;;7.72;4.00;;;2.00;99.90;;;;;;4957136;28;20422;-80
2022/04/02 08:01:01;;;;;;;16.40;3.88;;;2.20;99.90;;;;;;4974888;28;20063;-81
2022/04/02 08:03:29;;;;;;;10.73;4.65;;;2.10;99.90;;;;;;4975069;28;20022;-81
2022/04/02 08:05:55;;;;;;;10.70;4.60;;;2.30;99.90;;;;;;4972845;28;20569;-80
2022/04/02 08:08:25;;;;;;;10.13;3.90;;;2.30;99.90;;;;;;4974968;28;20023;-81
2022/04/02 08:10:53;;;;;;;8.55;3.83;;;2.40;99.90;;;;;;4972389;28;20118;-81
2022/04/02 08:13:20;;;;;;;13.40;5.07;;;2.30;99.90;;;;;;4979969;28;20023;-82
2022/04/02 08:15:46;;;;;;;9.13;3.70;;;2.20;99.90;;;;;;4974197;28;20042;-79
2022/04/02 08:18:16;;;;;;;8.63;3.90;;;2.30;99.90;;;;;;4966103;28;20035;-80
2022/04/02 08:20:43;;;;;;;7.75;4.43;;;2.20;99.90;;;;;;4969734;28;20043;-84
2022/04/02 08:23:09;;;;;;;11.85;4.38;;;2.30;99.90;;;;;;4966974;28;20558;-84
2022/04/02 08:25:38;;;;;;;13.90;5.13;;;2.40;99.90;;;;;;4954210;28;20118;-82
2022/04/02 08:28:12;;;;;;;12.10;4.97;;;2.40;99.90;;;;;;4963472;28;20027;-84
2022/04/02 08:30:53;;;;;;;11.85;4.93;;;2.40;99.90;;;;;;4968713;28;20117;-81
2022/04/02 08:33:18;;;;;;;9.68;4.47;;;2.40;99.90;;;;;;4972964;28;20031;-81
2022/04/02 08:36:02;;;;;;;11.27;4.55;;;2.40;99.90;;;;;;4970074;28;20019;-82
2022/04/02 08:38:28;;;;;;;10.68;4.65;;;2.50;99.90;;;;;;4962840;28;20102;-82
2022/04/02 08:41:22;;;;;;;11.63;4.88;;;2.50;99.90;;;;;;4957163;28;20109;-81
2022/04/02 08:44:22;;;;;;;13.73;4.72;;;2.60;99.90;;;;;;4957105;28;20070;-81
2022/04/02 08:47:10;;;;;;;15.93;5.63;;;2.60;99.90;;;;;;4960343;28;20062;-82
2022/04/02 08:49:36;;;;;;;13.98;4.13;;;2.70;99.90;;;;;;4974307;28;20073;-89
2022/04/02 08:52:14;;;;;;;11.45;4.63;;;2.70;99.90;;;;;;4956511;28;20538;-82
2022/04/02 08:54:46;;;;;;;12.30;4.57;;;2.70;99.90;;;;;;4974208;28;20023;-83
2022/04/02 08:57:18;;;;;;;12.32;4.53;;;2.70;99.90;;;;;;4974295;28;20390;-83
2022/04/02 09:00:05;;;;;;;12.27;4.83;;;2.80;99.90;;;;;;4956945;28;20019;-83
2022/04/02 09:02:55;;;;;;;9.60;4.45;;;2.80;99.90;;;;;;4955505;28;20479;-85
2022/04/02 09:05:27;;;;;;;12.73;4.90;;;2.90;99.90;;;;;;4973722;28;20026;-83
2022/04/02 09:08:30;;;;;;;17.02;5.20;;;3.00;99.90;;;;;;4957117;28;20034;-82
2022/04/02 09:10:58;;;;;;;11.35;4.55;;;3.00;99.90;;;;;;4943227;28;20023;-82
2022/04/02 09:14:02;;;;;;;9.18;4.28;;;3.10;99.90;;;;;;4973775;28;20106;-83
2022/04/02 09:16:56;;;;;;;10.10;4.82;;;3.00;99.90;;;;;;4894702;29;20434;-82
2022/04/02 09:19:31;;;;;;;11.65;5.03;;;3.10;99.90;;;;;;4895003;29;20143;-81
2022/04/02 09:21:57;;;;;;;15.98;5.30;;;3.30;99.90;;;;;;4896117;29;20052;-82
2022/04/02 09:24:44;;;;;;;14.05;4.85;;;3.40;99.90;;;;;;4895558;29;20029;-83
2022/04/02 09:27:34;;;;;;;12.60;5.00;;;3.40;99.90;;;;;;4895768;29;20457;-82
2022/04/02 09:30:27;;;;;;;9.65;4.85;;;3.60;99.90;;;;;;4895757;29;20089;-82
2022/04/02 09:33:17;;;;;;;12.13;4.47;;;3.90;99.90;;;;;;4895856;29;20470;-82
2022/04/02 09:36:07;;;;;;;10.98;4.65;;;4.00;99.90;;;;;;4895662;29;20025;-82
2022/04/02 09:39:00;;;;;;;10.35;4.25;;;4.20;99.90;;;;;;4893149;29;20033;-81
2022/04/02 09:41:31;;;;;;;10.20;4.50;;;4.00;99.90;;;;;;4894262;29;20100;-82
2022/04/02 09:44:13;;;;;;;11.77;5.15;;;3.90;99.90;;;;;;4894198;29;20036;-83
2022/04/02 09:47:21;;;;;;;11.93;5.20;;;3.90;99.90;;;;;;4894187;29;20184;-82
2022/04/02 09:50:09;;;;;;;8.45;4.88;;;3.90;99.90;;;;;;4875997;29;20027;-82
2022/04/02 09:52:43;;;;;;;13.80;5.13;;;4.10;99.90;;;;;;4882053;29;20128;-82
2022/04/02 09:55:14;;;;;;;10.23;4.43;;;4.30;99.90;;;;;;4881933;29;20497;-82
2022/04/02 09:57:45;;;;;;;10.15;4.38;;;4.30;99.90;;;;;;4911516;29;20036;-83
2022/04/02 10:00:13;;;;;;;11.55;4.97;;;4.40;99.90;;;;;;4902192;29;20099;-82
2022/04/02 10:02:54;;;;;;;11.23;5.30;;;4.80;99.90;;;;;;4911530;29;20515;-81
2022/04/02 10:05:31;;;;;;;11.25;4.38;;;4.80;99.90;;;;;;4913169;29;20487;-87
2022/04/02 10:08:04;;;;;;;8.93;4.45;;;4.80;99.90;;;;;;4910599;29;20099;-81
2022/04/02 10:10:30;;;;;;;10.15;4.60;;;5.20;99.90;;;;;;4886352;29;20511;-83
2022/04/02 10:12:57;;;;;;;8.15;4.38;;;5.50;99.90;;;;;;4914204;29;20051;-84
2022/04/02 10:15:23;;;;;;;13.10;4.82;;;5.30;99.90;;;;;;4905360;29;20063;-83
2022/04/02 10:17:52;;;;;;;9.75;4.22;;;5.50;99.90;;;;;;4913541;29;20047;-84
2022/04/02 10:20:28;;;;;;;12.57;4.13;;;5.40;99.90;;;;;;4908876;29;20025;-82
2022/04/02 10:23:21;;;;;;;9.15;4.07;;;5.60;99.90;;;;;;4911111;28;20467;-83
2022/04/02 10:26:16;;;;;;;10.60;4.88;;;5.50;99.90;;;;;;4984785;28;20105;-81
2022/04/02 10:28:52;;;;;;;14.40;4.28;;;5.70;99.90;;;;;;4951402;28;20402;-80
2022/04/02 10:31:40;;;;;;;11.50;3.97;;;5.60;99.90;;;;;;4976992;28;20027;-81
2022/04/02 10:34:39;;;;;;;8.70;4.00;;;5.70;99.90;;;;;;4969658;28;20023;-78
2022/04/02 10:37:27;;;;;;;9.25;3.85;;;5.70;99.90;;;;;;4926058;28;20035;-83
2022/04/02 10:40:00;;;;;;;13.85;3.65;;;5.80;99.90;;;;;;4975587;28;20038;-80
2022/04/02 10:42:40;;;;;;;9.60;4.05;;;5.70;99.60;;;;;;4976309;28;20031;-80
2022/04/02 10:45:10;;;;;;;11.85;4.00;;;5.80;99.90;;;;;;4975741;28;20065;-79
2022/04/02 10:48:02;;;;;;;10.45;3.80;;;5.90;99.90;;;;;;4956677;28;20026;-81
2022/04/02 10:50:29;;;;;;;6.05;2.92;;;5.60;98.70;;;;;;4962241;28;20101;-82
2022/04/02 10:53:01;;;;;;;7.00;2.90;;;5.40;97.50;;;;;;4976021;28;20031;-85
2022/04/02 10:55:28;;;;;;;8.80;4.37;;;5.30;96.70;;;;;;4976363;28;20031;-79
2022/04/02 10:57:55;;;;;;;6.55;2.67;;;5.70;95.10;;;;;;4976531;28;20271;-78
2022/04/02 11:00:21;;;;;;;8.63;2.88;;;5.80;94.80;;;;;;4976467;28;20154;-77
2022/04/02 11:02:50;;;;;;;5.68;2.90;;;5.80;95.30;;;;;;4975249;28;20477;-79
2022/04/02 11:05:18;;;;;;;7.55;2.35;;;6.80;94.30;;;;;;4958363;28;20018;-81
2022/04/02 11:07:48;;;;;;;8.00;2.35;;;7.00;93.00;;;;;;4975517;28;20015;-77
2022/04/02 11:10:20;;;;;;;4.90;2.30;;;7.40;91.90;;;;;;4975464;28;20083;-77
2022/04/02 11:12:48;;;;;;;5.07;2.38;;;7.80;90.90;;;;;;4975515;28;20475;-78
2022/04/02 11:15:19;;;;;;;5.22;2.00;;;7.90;90.30;;;;;;4975247;28;20487;-80
2022/04/02 11:17:47;;;;;;;3.97;1.90;;;8.20;89.10;;;;;;4958392;28;20038;-81
2022/04/02 11:20:16;;;;;;;6.15;2.15;;;7.90;88.70;;;;;;4974479;28;20030;-81
2022/04/02 11:22:54;;;;;;;7.03;2.17;;;7.00;88.80;;;;;;4958105;28;20503;-81
2022/04/02 11:25:31;;;;;;;5.05;1.85;;;6.50;87.60;;;;;;4972880;28;20038;-79
2022/04/02 11:28:18;;;;;;;8.90;2.05;;;6.30;87.60;;;;;;4957748;28;20023;-79
2022/04/02 11:30:51;;;;;;;8.40;3.40;;;6.20;88.60;;;;;;4975571;28;20465;-83
2022/04/02 11:33:18;;;;;;;6.38;2.28;;;6.30;88.00;;;;;;4957311;28;20089;-80
2022/04/02 11:35:55;;;;;;;6.22;2.35;;;6.20;89.50;;;;;;4958053;28;20050;-78
2022/04/02 11:38:21;;;;;;;8.68;2.20;;;6.00;90.50;;;;;;4974340;28;20066;-79
2022/04/02 11:40:56;;;;;;;4.72;1.77;;;5.80;90.30;;;;;;4973470;28;20118;-79
2022/04/02 11:43:33;;;;;;;10.13;2.58;;;5.60;90.10;;;;;;4957080;28;20035;-79
2022/04/02 11:46:01;;;;;;;9.18;3.53;;;5.90;90.20;;;;;;4971774;28;20497;-80
2022/04/02 11:48:33;;;;;;;7.88;2.65;;;6.20;90.30;;;;;;4975471;28;20018;-78
2022/04/02 11:51:20;;;;;;;9.45;2.33;;;6.10;90.20;;;;;;4975687;28;20027;-79
2022/04/02 11:53:47;;;;;;;3.50;1.90;;;5.90;88.80;;;;;;4958140;28;20054;-79
2022/04/02 11:56:31;;;;;;;7.68;2.25;;;5.60;87.90;;;;;;4975871;28;20030;-79
2022/04/02 11:58:59;;;;;;;7.70;3.00;;;5.50;86.60;;;;;;4957662;28;20034;-79
2022/04/02 12:01:26;;;;;;;8.98;3.05;;;5.60;88.10;;;;;;4975075;28;20023;-79
2022/04/02 12:04:07;;;;;;;12.30;2.70;;;5.70;88.30;;;;;;4975640;28;20503;-79
2022/04/02 12:06:37;;;;;;;5.65;2.53;;;5.80;89.60;;;;;;4957741;28;20051;-79
2022/04/02 12:09:23;;;;;;;4.78;2.15;;;5.70;90.30;;;;;;4957611;28;20408;-79
2022/04/02 12:11:56;;;;;;;7.25;2.85;;;5.60;90.40;;;;;;4975511;28;20386;-79
2022/04/02 12:14:38;;;;;;;11.10;4.88;;;5.50;90.90;;;;;;4974583;28;20034;-79
2022/04/02 12:17:09;;;;;;;9.30;3.58;;;5.50;91.10;;;;;;4957330;28;20106;-79
2022/04/02 12:19:36;;;;;;;6.60;2.20;;;5.50;90.70;;;;;;4975804;28;20033;-79
2022/04/02 12:22:02;;;;;;;5.32;2.20;;;5.40;89.40;;;;;;4974323;28;20442;-79
2022/04/02 12:24:47;;;;;;;4.63;2.55;;;5.40;90.90;;;;;;4974110;28;20031;-79
2022/04/02 12:27:18;;;;;;;8.68;3.15;;;5.30;91.20;;;;;;4974075;28;20038;-81
2022/04/02 12:29:48;;;;;;;8.40;3.05;;;5.30;90.00;;;;;;4975456;28;20026;-79
2022/04/02 12:32:29;;;;;;;7.13;3.17;;;5.40;90.40;;;;;;4954771;28;20035;-79
2022/04/02 12:35:06;;;;;;;9.23;3.20;;;5.50;90.40;;;;;;4974762;28;20031;-79
2022/04/02 12:37:40;;;;;;;8.75;3.20;;;5.70;90.90;;;;;;4974996;28;20109;-80
2022/04/02 12:40:30;;;;;;;9.48;3.50;;;5.70;90.30;;;;;;4975429;28;20383;-79
2022/04/02 12:43:02;;;;;;;6.35;2.22;;;5.70;90.10;;;;;;4968622;28;20390;-80
2022/04/02 12:45:30;;;;;;;4.47;2.00;;;5.90;89.00;;;;;;4973949;28;20033;-80
2022/04/02 12:48:04;;;;;;;8.02;2.03;;;6.00;86.40;;;;;;4974041;28;20033;-80
2022/04/02 12:50:36;;;;;;;4.70;1.92;;;5.80;86.90;;;;;;4974193;28;20031;-80
2022/04/02 12:53:03;;;;;;;10.60;2.40;;;5.80;88.90;;;;;;4974092;28;20038;-80
2022/04/02 12:55:32;;;;;;;8.70;3.83;;;5.60;88.90;;;;;;4957102;28;20035;-80
2022/04/02 12:58:05;;;;;;;24.83;13.07;;;5.60;90.00;;;;;;4973253;28;20054;-80
2022/04/02 13:00:36;;;;;;;6.75;4.63;;;5.60;89.40;;;;;;4974278;28;20029;-80
2022/04/02 13:03:03;;;;;;;6.27;2.87;;;5.60;89.50;;;;;;4974384;28;20022;-80
2022/04/02 13:05:44;;;;;;;10.95;3.03;;;5.60;90.20;;;;;;4974066;28;20023;-80
2022/04/02 13:08:24;;;;;;;5.30;1.92;;;5.80;89.90;;;;;;4973819;28;20050;-80
2022/04/02 13:10:55;;;;;;;8.00;3.40;;;6.20;89.80;;;;;;4973966;28;20088;-80
2022/04/02 13:13:42;;;;;;;6.10;3.08;;;6.30;87.50;;;;;;4973399;28;20462;-80
2022/04/02 13:16:11;;;;;;;5.82;3.28;;;6.20;85.40;;;;;;4980767;28;20034;-80